Time;durP1;ratioP1;P1;durP2;ratioP2;P2;SDS_P1;SDS_P2;PMS_P1;PMS_P2;Temp;Humidity;BMP_temperature;BMP_pressure;BME280_temperature;BME280_humidity;BME280_pressure;Samples;Min_cycle;Max_cycle;Signal;HPM_P1;HPM_P2
2022/04/28 00:00:50;;;;;;;9.45;4.00;;;;;;;5.25;80.37;102929.84;5016006;28;20381;-47
2022/04/28 00:03:15;;;;;;;8.93;4.10;;;;;;;5.29;80.81;102937.22;5015744;28;20381;-48
2022/04/28 00:05:41;;;;;;;9.25;4.47;;;;;;;5.17;80.01;102930.31;5015379;28;20022;-46
2022/04/28 00:08:08;;;;;;;9.50;4.45;;;;;;;5.22;80.39;102930.84;5015756;28;20033;-46
2022/04/28 00:10:34;;;;;;;9.40;4.40;;;;;;;5.20;80.14;102935.25;5015481;28;20021;-47
2022/04/28 00:13:00;;;;;;;12.13;4.97;;;;;;;5.16;80.87;102931.25;5015451;28;20034;-47
2022/04/28 00:15:27;;;;;;;10.60;4.45;;;;;;;5.18;81.35;102937.13;5015448;28;20049;-47
2022/04/28 00:17:53;;;;;;;12.90;5.15;;;;;;;5.31;80.62;102944.81;5015719;28;20029;-47
2022/04/28 00:20:18;;;;;;;10.80;4.97;;;;;;;5.41;80.48;102944.13;5015376;28;20402;-47
2022/04/28 00:22:43;;;;;;;8.25;4.25;;;;;;;5.32;80.48;102936.19;5015349;28;20416;-51
2022/04/28 00:25:09;;;;;;;10.80;4.45;;;;;;;5.13;79.83;102932.28;5015334;28;20034;-46
2022/04/28 00:27:34;;;;;;;10.90;4.47;;;;;;;5.22;81.25;102932.59;5015256;28;20036;-46
2022/04/28 00:30:00;;;;;;;9.00;4.97;;;;;;;5.03;80.91;102938.06;4997678;28;20018;-47
2022/04/28 00:32:26;;;;;;;11.15;4.13;;;;;;;4.90;80.96;102931.16;5015456;28;20029;-46
2022/04/28 00:34:51;;;;;;;11.63;4.65;;;;;;;4.92;81.91;102934.47;5015434;28;20465;-46
2022/04/28 00:37:18;;;;;;;9.85;4.53;;;;;;;4.78;81.59;102933.69;5015153;28;20026;-47
2022/04/28 00:39:44;;;;;;;9.05;4.18;;;;;;;4.82;82.42;102935.94;5015289;28;20400;-47
2022/04/28 00:42:11;;;;;;;10.07;4.20;;;;;;;4.80;82.21;102936.97;5014971;28;20018;-46
2022/04/28 00:44:36;;;;;;;10.20;4.43;;;;;;;4.80;82.67;102947.22;5015790;28;20033;-47
2022/04/28 00:47:02;;;;;;;9.60;4.35;;;;;;;4.70;81.50;102940.09;5015172;28;20453;-47
2022/04/28 00:52:12;;;;;;;8.80;4.30;;;;;;;4.67;81.91;102939.47;5015428;28;20439;-47
2022/04/28 00:54:37;;;;;;;9.82;4.57;;;;;;;4.75;82.49;102942.38;5014803;28;20135;-47
2022/04/28 00:57:03;;;;;;;9.77;4.22;;;;;;;4.72;81.18;102935.72;5015257;28;20076;-47
2022/04/28 00:59:29;;;;;;;9.75;4.57;;;;;;;4.85;81.81;102934.94;4997344;28;20022;-47
2022/04/28 01:01:55;;;;;;;10.30;4.40;;;;;;;4.94;82.54;102942.03;5014557;28;20037;-47
2022/04/28 01:04:20;;;;;;;12.60;4.38;;;;;;;4.96;81.93;102943.59;5014628;28;20412;-47
2022/04/28 01:06:45;;;;;;;9.20;4.30;;;;;;;4.85;82.00;102927.25;5014462;28;20025;-47
2022/04/28 01:09:11;;;;;;;10.15;4.65;;;;;;;4.86;81.55;102927.16;5014437;28;20380;-47
2022/04/28 01:11:39;;;;;;;9.13;4.63;;;;;;;4.98;82.07;102941.75;5014470;28;20079;-46
2022/04/28 01:14:04;;;;;;;10.82;4.68;;;;;;;5.00;81.69;102941.66;5014251;28;20050;-46
2022/04/28 01:16:30;;;;;;;11.82;4.72;;;;;;;5.03;81.48;102938.88;5014407;28;20045;-46
2022/04/28 01:18:55;;;;;;;9.45;4.07;;;;;;;4.98;81.09;102944.31;5013951;28;20018;-47
2022/04/28 01:21:20;;;;;;;9.27;4.70;;;;;;;4.88;82.13;102938.13;5014228;28;20026;-46
2022/04/28 01:23:45;;;;;;;15.02;4.93;;;;;;;4.87;81.48;102936.50;5014269;28;20424;-47
2022/04/28 01:26:12;;;;;;;11.02;4.47;;;;;;;4.86;81.98;102939.13;5012828;28;20033;-46
2022/04/28 01:28:38;;;;;;;9.65;4.50;;;;;;;4.88;81.52;102938.13;5014028;28;20029;-48
2022/04/28 01:31:05;;;;;;;8.68;4.47;;;;;;;4.85;82.03;102933.19;5014488;28;20105;-48
2022/04/28 01:33:30;;;;;;;8.55;4.60;;;;;;;4.82;81.86;102935.94;5014327;28;20056;-48
2022/04/28 01:35:56;;;;;;;9.57;4.78;;;;;;;4.85;82.63;102934.94;5014131;28;20441;-48
2022/04/28 01:38:21;;;;;;;9.00;4.47;;;;;;;4.85;81.82;102938.31;5014659;28;20079;-46
2022/04/28 01:40:46;;;;;;;15.27;4.78;;;;;;;4.84;81.98;102936.69;5014288;28;20022;-48
2022/04/28 01:43:12;;;;;;;12.25;5.07;;;;;;;4.89;82.22;102939.78;5014294;28;20437;-48
2022/04/28 01:45:37;;;;;;;13.30;5.05;;;;;;;4.84;81.94;102935.88;5014022;28;20018;-48
2022/04/28 01:48:03;;;;;;;10.55;4.80;;;;;;;4.79;82.21;102937.88;5013940;28;20034;-46
2022/04/28 01:50:28;;;;;;;13.27;5.28;;;;;;;4.82;82.86;102942.81;5013908;28;20069;-54
2022/04/28 01:55:37;;;;;;;13.30;5.70;;;;;;;4.84;82.73;102936.69;5014180;28;20115;-51
2022/04/28 01:58:02;;;;;;;12.23;4.88;;;;;;;4.83;82.11;102937.59;5013847;28;20473;-47
2022/04/28 02:00:29;;;;;;;13.40;5.07;;;;;;;4.80;82.28;102934.41;5014104;28;20026;-47
2022/04/28 02:02:54;;;;;;;12.50;5.32;;;;;;;4.80;81.85;102949.78;5013845;28;20022;-45
2022/04/28 02:05:20;;;;;;;11.98;5.57;;;;;;;4.85;81.96;102952.88;5013715;28;20037;-48
2022/04/28 02:07:45;;;;;;;12.00;5.45;;;;;;;4.73;81.50;102949.34;5013273;28;20022;-48
2022/04/28 02:10:10;;;;;;;11.00;5.13;;;;;;;4.65;82.18;102956.66;5013821;28;20465;-47
2022/04/28 02:12:35;;;;;;;14.73;5.43;;;;;;;4.61;82.24;102947.53;4996088;28;20028;-46
2022/04/28 02:15:01;;;;;;;8.50;5.10;;;;;;;4.62;81.97;102957.69;5013642;28;20108;-47
2022/04/28 02:17:27;;;;;;;10.35;5.00;;;;;;;4.57;82.05;102953.75;5013798;28;20089;-48
2022/04/28 02:19:53;;;;;;;12.02;4.95;;;;;;;4.51;82.66;102949.81;4995956;28;20036;-48
2022/04/28 02:22:19;;;;;;;11.27;5.32;;;;;;;4.51;82.51;102957.50;5013534;28;20026;-48
2022/04/28 02:24:44;;;;;;;14.50;5.70;;;;;;;4.57;82.18;102953.75;5014152;28;20322;-46
2022/04/28 02:27:10;;;;;;;10.05;5.10;;;;;;;4.55;82.61;102956.44;5013746;28;20461;-47
2022/04/28 02:29:35;;;;;;;12.93;5.40;;;;;;;4.56;82.45;102954.69;5013579;28;20161;-47
2022/04/28 02:32:02;;;;;;;10.77;5.13;;;;;;;4.54;82.18;102959.88;5015302;28;20014;-47
2022/04/28 02:34:27;;;;;;;11.13;5.18;;;;;;;4.49;81.91;102960.19;5000246;28;20084;-47
2022/04/28 02:36:53;;;;;;;16.90;5.78;;;;;;;4.52;82.41;102957.44;5016528;28;20022;-47
2022/04/28 02:39:18;;;;;;;12.77;5.28;;;;;;;4.50;81.45;102966.94;5017860;28;20022;-47
2022/04/28 02:41:47;;;;;;;13.13;5.45;;;;;;;4.55;82.03;102959.00;5017246;28;20034;-46
2022/04/28 02:44:13;;;;;;;11.88;5.35;;;;;;;4.43;82.04;102957.16;5018310;28;20032;-48
2022/04/28 02:46:48;;;;;;;15.18;5.65;;;;;;;4.38;82.14;102959.19;5017533;28;20116;-47
2022/04/28 02:49:14;;;;;;;12.90;6.05;;;;;;;4.34;82.59;102957.72;5018204;28;20358;-47
2022/04/28 02:51:39;;;;;;;14.45;6.25;;;;;;;4.36;83.04;102959.28;5017065;28;20026;-47
2022/04/28 02:54:05;;;;;;;13.70;6.05;;;;;;;4.34;82.75;102958.53;5017088;28;20033;-48
2022/04/28 02:56:31;;;;;;;10.77;5.40;;;;;;;4.32;83.28;102954.44;5017846;28;20496;-47
2022/04/28 02:58:56;;;;;;;11.13;5.55;;;;;;;4.20;82.76;102967.06;5017046;28;20034;-47
2022/04/28 03:01:23;;;;;;;13.10;5.85;;;;;;;4.23;82.98;102955.78;5016861;28;20384;-48
2022/04/28 03:03:49;;;;;;;11.20;5.95;;;;;;;4.17;83.08;102962.13;5016942;28;20025;-47
2022/04/28 03:11:43;;;;;;;14.13;6.43;;;;;;;4.21;84.35;102940.53;5017255;28;20385;-48
2022/04/28 03:14:09;;;;;;;13.38;6.50;;;;;;;4.25;84.24;102944.56;5016627;28;20087;-47
2022/04/28 03:16:35;;;;;;;12.30;6.35;;;;;;;4.17;84.77;102945.94;5016763;28;20021;-47
2022/04/28 03:19:01;;;;;;;13.23;6.65;;;;;;;4.12;84.25;102953.06;5016711;28;20033;-46
2022/04/28 03:21:26;;;;;;;12.45;6.22;;;;;;;4.09;84.82;102948.97;5016794;28;20034;-46
2022/04/28 03:23:51;;;;;;;14.77;6.35;;;;;;;4.11;84.49;102953.97;4999027;28;20034;-47
2022/04/28 03:26:16;;;;;;;14.38;6.32;;;;;;;3.97;84.44;102958.19;5017086;28;20030;-47
2022/04/28 03:28:42;;;;;;;12.35;6.05;;;;;;;3.87;84.77;102966.47;5016547;28;20017;-47
2022/04/28 03:31:08;;;;;;;15.20;6.25;;;;;;;3.92;84.81;102960.19;5016386;28;20079;-47
2022/04/28 03:33:34;;;;;;;15.68;6.68;;;;;;;4.02;84.82;102961.28;5016330;28;20447;-47
2022/04/28 03:35:59;;;;;;;12.18;6.28;;;;;;;4.10;83.99;102967.69;5016631;28;20033;-47
2022/04/28 03:38:24;;;;;;;13.00;5.78;;;;;;;4.04;83.89;102958.63;5016314;28;20026;-46
2022/04/28 03:40:49;;;;;;;12.85;5.90;;;;;;;3.83;83.74;102964.09;5016194;28;20112;-47
2022/04/28 03:43:15;;;;;;;15.38;6.00;;;;;;;3.80;85.03;102968.59;5014497;28;20033;-46
2022/04/28 03:45:41;;;;;;;13.07;6.18;;;;;;;3.81;84.72;102976.16;4998567;28;20033;-47
2022/04/28 03:48:10;;;;;;;13.27;5.88;;;;;;;3.89;84.62;102973.16;5016899;28;20021;-47
2022/04/28 03:50:38;;;;;;;12.73;6.22;;;;;;;3.88;84.05;102963.81;5016124;28;20022;-46
2022/04/28 03:53:04;;;;;;;15.35;6.32;;;;;;;3.89;83.70;102974.91;5016071;28;20014;-46
2022/04/28 03:55:30;;;;;;;14.85;6.47;;;;;;;3.83;84.38;102958.16;5015910;28;20113;-47
2022/04/28 03:57:56;;;;;;;19.67;6.78;;;;;;;3.87;84.30;102961.38;5016170;28;20148;-46
2022/04/28 04:00:22;;;;;;;13.57;6.38;;;;;;;3.90;83.84;102967.13;5016121;28;20030;-47
2022/04/28 04:02:48;;;;;;;14.75;7.20;;;;;;;3.90;83.44;102972.22;5016052;28;20022;-47
2022/04/28 04:05:14;;;;;;;12.63;6.35;;;;;;;3.89;83.46;102968.03;5015818;28;20118;-47
2022/04/28 04:07:42;;;;;;;11.73;5.90;;;;;;;3.92;84.29;102969.59;5016199;28;20109;-47
2022/04/28 04:10:11;;;;;;;14.60;6.80;;;;;;;3.93;83.91;102966.13;5015596;28;20445;-47
2022/04/28 04:12:36;;;;;;;13.88;6.22;;;;;;;3.89;83.72;102962.94;5015963;28;20029;-47
2022/04/28 04:15:03;;;;;;;12.57;6.35;;;;;;;3.91;83.65;102963.63;5015493;28;20485;-48
2022/04/28 04:17:28;;;;;;;11.48;6.18;;;;;;;3.95;83.27;102969.41;5015515;28;20029;-46
2022/04/28 04:19:53;;;;;;;17.02;6.72;;;;;;;3.97;84.22;102968.41;5015552;28;20113;-47
2022/04/28 04:22:18;;;;;;;13.88;6.32;;;;;;;3.97;84.13;102968.41;4981607;28;20492;-46
2022/04/28 04:24:44;;;;;;;14.23;7.25;;;;;;;4.03;83.41;102975.72;5015697;28;20040;-48
2022/04/28 04:27:09;;;;;;;15.13;7.13;;;;;;;4.06;83.88;102972.19;5015626;28;20042;-47
2022/04/28 04:29:38;;;;;;;10.50;6.07;;;;;;;4.05;84.12;102971.31;5015307;28;20022;-47
2022/04/28 04:32:18;;;;;;;13.77;6.88;;;;;;;4.13;84.03;102972.63;5015559;28;20042;-46
2022/04/28 04:34:47;;;;;;;18.83;7.22;;;;;;;4.10;84.57;102976.19;5000185;28;20428;-46
2022/04/28 04:37:13;;;;;;;15.35;6.88;;;;;;;4.14;84.43;102966.59;5015747;28;20104;-48
2022/04/28 04:39:38;;;;;;;16.48;7.35;;;;;;;4.26;84.67;102973.56;5015112;28;20041;-48
2022/04/28 04:42:04;;;;;;;13.70;7.50;;;;;;;4.29;85.14;102966.50;5015173;28;20018;-46
2022/04/28 04:44:30;;;;;;;17.88;7.43;;;;;;;4.33;83.34;102962.00;4997891;28;20080;-47
2022/04/28 04:46:55;;;;;;;16.58;7.70;;;;;;;4.41;84.02;102972.63;5015233;28;20156;-46
2022/04/28 04:49:20;;;;;;;15.80;7.20;;;;;;;4.48;83.88;102975.63;5015166;28;20113;-46
2022/04/28 04:51:46;;;;;;;15.30;7.20;;;;;;;4.40;83.66;102975.25;5014870;28;20014;-47
2022/04/28 04:54:11;;;;;;;17.35;7.25;;;;;;;4.48;83.51;102978.19;5014085;28;20089;-48
2022/04/28 04:56:36;;;;;;;16.02;7.38;;;;;;;4.62;83.95;102972.22;5014887;28;20105;-48
2022/04/28 04:59:02;;;;;;;18.52;7.65;;;;;;;4.75;83.36;102986.75;5014818;28;20034;-48
2022/04/28 05:01:28;;;;;;;16.70;7.28;;;;;;;4.77;82.85;102996.88;5014649;28;20029;-48
2022/04/28 05:03:53;;;;;;;21.25;8.90;;;;;;;4.88;83.57;102989.38;5014632;28;20026;-49
2022/04/28 05:06:19;;;;;;;17.77;7.20;;;;;;;4.99;83.12;102993.81;5015465;28;20034;-48
2022/04/28 05:08:44;;;;;;;17.95;7.15;;;;;;;5.13;83.40;103005.78;5014557;28;20112;-48
2022/04/28 05:11:09;;;;;;;14.95;7.20;;;;;;;5.21;82.98;103011.25;5015117;28;20028;-46
2022/04/28 05:13:34;;;;;;;13.70;6.57;;;;;;;5.21;82.29;103021.50;5014177;28;20116;-47
2022/04/28 05:16:00;;;;;;;19.85;6.97;;;;;;;5.29;82.16;103018.44;5013069;28;20116;-47
2022/04/28 05:18:27;;;;;;;17.50;6.82;;;;;;;5.49;82.03;103015.41;5014340;28;20022;-47
2022/04/28 05:20:53;;;;;;;20.38;7.28;;;;;;;5.54;80.82;103020.25;4996605;28;20053;-49
2022/04/28 05:23:18;;;;;;;16.30;6.80;;;;;;;5.64;80.59;103022.16;5014198;28;20453;-47
2022/04/28 05:25:43;;;;;;;15.68;7.03;;;;;;;5.72;81.10;103031.88;5014705;28;20109;-47
2022/04/28 05:28:09;;;;;;;18.73;7.43;;;;;;;5.79;80.17;103034.91;5014508;28;20033;-46
2022/04/28 05:30:34;;;;;;;18.58;7.38;;;;;;;5.94;80.84;103038.22;5014596;28;20026;-45
2022/04/28 05:32:59;;;;;;;16.42;7.25;;;;;;;6.10;79.95;103036.31;4996496;28;20433;-47
2022/04/28 05:35:25;;;;;;;18.08;6.90;;;;;;;6.13;79.58;103035.25;5014454;28;20022;-48
2022/04/28 05:37:50;;;;;;;20.15;7.47;;;;;;;6.17;79.48;103041.84;4995569;28;20145;-47
2022/04/28 05:40:16;;;;;;;12.35;6.55;;;;;;;6.10;78.93;103041.44;5013988;28;20082;-48
2022/04/28 05:45:45;;;;;;;17.88;6.13;;;;;;;6.17;78.06;103042.66;5014680;28;20060;-48
2022/04/28 05:48:12;;;;;;;10.38;6.45;;;;;;;6.36;77.87;103059.38;5014048;28;20040;-48
2022/04/28 05:50:38;;;;;;;14.52;6.35;;;;;;;6.46;77.12;103065.56;5014371;28;20075;-48
2022/04/28 05:53:03;;;;;;;17.48;6.18;;;;;;;9.32;69.09;103071.97;5014063;28;20072;-46
2022/04/28 05:55:28;;;;;;;14.43;5.15;;;;;;;14.48;50.69;103061.41;5013918;28;20461;-48
2022/04/28 05:57:57;;;;;;;12.02;5.30;;;;;;;15.50;46.73;103060.28;5014461;28;20030;-45
2022/04/28 06:00:23;;;;;;;14.88;4.97;;;;;;;17.11;42.85;103066.88;5013889;28;20479;-46
2022/04/28 06:02:48;;;;;;;13.30;4.57;;;;;;;18.05;39.75;103069.16;5012420;28;20026;-46
2022/04/28 06:05:13;;;;;;;11.98;4.30;;;;;;;17.28;41.50;103071.97;5013448;28;20186;-45
2022/04/28 06:07:39;;;;;;;15.48;4.38;;;;;;;18.32;39.66;103080.75;5013476;28;20075;-46
2022/04/28 06:10:04;;;;;;;10.70;4.18;;;;;;;19.25;37.99;103076.53;5013395;28;20076;-46
2022/04/28 06:12:30;;;;;;;11.13;4.53;;;;;;;18.27;38.32;103070.84;5013857;28;20111;-46
2022/04/28 06:14:55;;;;;;;14.02;4.85;;;;;;;19.73;36.38;103068.81;5013081;28;20493;-46
2022/04/28 06:17:21;;;;;;;17.55;4.80;;;;;;;19.00;37.02;103060.38;5013830;28;20030;-46
2022/04/28 06:19:47;;;;;;;14.77;4.95;;;;;;;19.67;35.41;103074.84;5013315;28;20018;-46
2022/04/28 06:22:12;;;;;;;13.88;4.65;;;;;;;20.06;35.11;103073.44;5013378;28;20444;-46
2022/04/28 06:24:38;;;;;;;17.92;5.50;;;;;;;20.31;33.31;103071.13;5013637;28;20389;-45
2022/04/28 06:27:04;;;;;;;13.50;4.85;;;;;;;20.06;34.80;103065.56;4995702;28;20026;-45
2022/04/28 06:29:29;;;;;;;13.50;4.30;;;;;;;20.39;33.61;103072.78;5013781;28;20381;-45
2022/04/28 06:31:54;;;;;;;12.77;4.60;;;;;;;20.25;33.90;103080.63;5013684;28;20018;-45
2022/04/28 06:34:20;;;;;;;13.63;4.20;;;;;;;21.06;32.04;103087.72;5012967;28;20038;-45
2022/04/28 06:36:45;;;;;;;10.95;3.75;;;;;;;21.10;33.39;103096.81;5013466;28;20385;-45
2022/04/28 06:39:10;;;;;;;10.23;3.23;;;;;;;21.53;32.21;103091.16;5013398;28;20029;-45
2022/04/28 06:41:35;;;;;;;13.20;3.50;;;;;;;21.47;32.14;103096.44;5013546;28;20285;-45
2022/04/28 06:44:01;;;;;;;13.85;3.20;;;;;;;20.71;32.00;103093.13;4995979;28;20030;-45
2022/04/28 06:46:26;;;;;;;10.48;3.72;;;;;;;20.64;32.10;103101.97;5013545;28;20112;-50
2022/04/28 06:48:51;;;;;;;10.73;3.63;;;;;;;21.36;31.46;103105.72;5013611;28;20022;-46
2022/04/28 06:51:17;;;;;;;8.63;3.70;;;;;;;21.71;31.74;103095.78;5013589;28;20097;-46
2022/04/28 06:53:42;;;;;;;11.75;3.72;;;;;;;20.53;33.35;103098.09;5013715;28;20454;-46
2022/04/28 06:56:08;;;;;;;11.82;3.67;;;;;;;21.50;31.93;103102.09;5013363;28;20114;-46
2022/04/28 06:58:34;;;;;;;10.55;3.63;;;;;;;22.08;30.96;103102.16;5013277;28;20037;-47
2022/04/28 07:00:59;;;;;;;8.73;3.80;;;;;;;19.26;35.01;103103.53;5013111;28;20044;-47
2022/04/28 07:03:24;;;;;;;10.18;3.40;;;;;;;18.92;36.50;103108.47;5013460;28;20018;-48
2022/04/28 07:05:50;;;;;;;11.80;3.88;;;;;;;19.38;36.27;103104.66;5013402;28;20376;-46
2022/04/28 07:08:15;;;;;;;11.93;3.95;;;;;;;21.43;32.24;103113.63;5012109;28;20037;-47
2022/04/28 07:10:41;;;;;;;13.25;3.88;;;;;;;21.77;31.93;103112.56;5011692;28;20017;-46
2022/04/28 07:13:09;;;;;;;9.95;3.70;;;;;;;17.48;38.26;103125.38;5010915;28;20448;-47
2022/04/28 07:15:36;;;;;;;11.57;3.90;;;;;;;16.17;42.35;103113.03;4995421;28;20077;-52
2022/04/28 07:18:03;;;;;;;11.13;4.20;;;;;;;14.41;45.31;103121.88;5014882;28;20056;-50
2022/04/28 07:20:29;;;;;;;16.25;4.32;;;;;;;13.78;47.77;103124.72;5016900;28;20022;-46
2022/04/28 07:22:54;;;;;;;12.80;3.95;;;;;;;15.40;44.14;103124.78;5016473;28;20531;-46
2022/04/28 07:25:20;;;;;;;13.30;4.15;;;;;;;14.17;46.34;103137.34;5016548;28;20048;-46
2022/04/28 07:27:45;;;;;;;12.55;3.85;;;;;;;14.83;43.60;103139.31;5016466;28;20021;-46
2022/04/28 07:30:11;;;;;;;10.85;3.67;;;;;;;20.34;33.33;103128.53;4998691;28;20384;-46
2022/04/28 07:32:36;;;;;;;12.45;3.70;;;;;;;19.26;35.68;103140.25;5016643;28;20525;-46
2022/04/28 07:35:01;;;;;;;8.93;2.95;;;;;;;16.00;40.30;103143.53;5016609;28;20025;-46
2022/04/28 07:37:27;;;;;;;10.90;3.40;;;;;;;14.60;42.62;103153.84;4998871;28;20121;-47
2022/04/28 07:39:52;;;;;;;7.63;2.72;;;;;;;14.62;42.98;103149.31;5016737;28;20062;-47
2022/04/28 07:42:17;;;;;;;12.57;3.10;;;;;;;14.76;43.17;103156.53;5016572;28;20030;-47
2022/04/28 07:44:42;;;;;;;10.65;3.10;;;;;;;13.93;45.23;103167.41;5016035;28;20381;-47
2022/04/28 07:47:08;;;;;;;10.85;3.25;;;;;;;14.62;43.73;103160.53;4998421;28;20071;-45
2022/04/28 07:49:36;;;;;;;9.43;3.47;;;;;;;13.88;44.70;103161.03;5015931;28;20424;-47
2022/04/28 07:52:01;;;;;;;9.07;3.15;;;;;;;14.33;44.93;103155.66;5016604;28;20030;-46
2022/04/28 07:54:27;;;;;;;10.63;3.47;;;;;;;15.43;40.23;103159.16;5016031;28;20068;-46
2022/04/28 07:56:52;;;;;;;8.63;3.05;;;;;;;13.03;46.87;103165.69;5016005;28;20101;-48
2022/04/28 07:59:17;;;;;;;11.50;2.90;;;;;;;13.26;45.90;103166.97;5015896;28;20054;-46
2022/04/28 08:01:43;;;;;;;10.25;3.45;;;;;;;12.84;45.69;103177.00;5014379;28;20477;-46
2022/04/28 08:04:08;;;;;;;12.38;3.05;;;;;;;12.12;47.64;103174.06;5015836;28;20060;-47
2022/04/28 08:06:33;;;;;;;10.13;3.00;;;;;;;12.74;47.48;103184.78;5016047;28;20384;-46
2022/04/28 08:08:58;;;;;;;10.90;3.15;;;;;;;13.86;44.68;103174.16;5015559;28;20075;-47
2022/04/28 08:11:24;;;;;;;14.07;3.20;;;;;;;13.03;46.70;103181.25;5015917;28;20453;-46
2022/04/28 08:13:49;;;;;;;9.07;3.33;;;;;;;13.14;47.23;103177.66;5015361;28;20132;-46
2022/04/28 08:16:14;;;;;;;10.82;3.58;;;;;;;13.17;46.53;103179.97;5015500;28;20481;-45
2022/04/28 08:18:40;;;;;;;13.75;3.53;;;;;;;13.98;45.52;103178.19;5015749;28;20025;-46
2022/04/28 08:21:08;;;;;;;10.45;3.78;;;;;;;15.06;44.01;103180.41;5015544;28;20465;-46
2022/04/28 08:23:34;;;;;;;9.65;3.70;;;;;;;13.87;44.96;103175.81;5015576;28;20477;-47
2022/04/28 08:25:59;;;;;;;10.02;3.72;;;;;;;12.48;47.08;103178.63;5014329;28;20030;-46
2022/04/28 08:28:25;;;;;;;11.32;3.83;;;;;;;12.77;46.75;103194.88;5014664;28;20109;-45
2022/04/28 08:30:51;;;;;;;8.80;3.85;;;;;;;12.92;47.03;103197.00;5015065;28;20037;-46
2022/04/28 08:33:17;;;;;;;11.98;3.70;;;;;;;12.73;47.42;103185.78;5015108;28;20024;-45
2022/04/28 08:35:42;;;;;;;9.57;3.47;;;;;;;12.40;47.56;103187.13;4997498;28;20026;-47
2022/04/28 08:38:07;;;;;;;11.65;3.53;;;;;;;12.84;47.43;103190.78;5015835;28;20037;-53
2022/04/28 08:40:33;;;;;;;11.27;3.67;;;;;;;14.35;44.89;103186.69;4997706;28;20120;-46
2022/04/28 08:43:04;;;;;;;10.18;3.90;;;;;;;12.77;47.37;103188.88;5015067;28;20041;-46
2022/04/28 08:45:35;;;;;;;9.05;3.30;;;;;;;14.69;43.42;103183.34;4997422;28;20425;-47
2022/04/28 08:48:02;;;;;;;12.93;4.60;;;;;;;15.22;42.12;103180.44;5015315;28;20048;-45
2022/04/28 08:50:28;;;;;;;9.45;3.53;;;;;;;14.79;43.11;103177.06;5015578;28;20070;-46
2022/04/28 08:52:55;;;;;;;14.40;4.00;;;;;;;15.88;41.94;103180.53;4981361;28;20017;-46
2022/04/28 08:55:20;;;;;;;9.88;3.95;;;;;;;13.91;44.23;103186.72;5014707;28;20464;-45
2022/04/28 08:57:45;;;;;;;11.27;4.13;;;;;;;12.92;47.37;103189.22;5014583;28;20050;-45
2022/04/28 09:00:11;;;;;;;11.80;4.45;;;;;;;12.68;47.51;103187.16;5014938;28;20112;-50
2022/04/28 09:02:39;;;;;;;12.35;4.20;;;;;;;13.60;47.15;103181.88;5015104;28;20026;-45
2022/04/28 09:05:07;;;;;;;13.38;3.83;;;;;;;14.76;44.72;103176.53;4997206;28;20025;-46
2022/04/28 09:07:43;;;;;;;10.73;4.05;;;;;;;13.86;45.67;103173.34;5014624;28;20389;-45
2022/04/28 09:10:33;;;;;;;10.23;4.15;;;;;;;14.79;44.01;103182.25;5014281;28;20022;-45
2022/04/28 09:15:52;;;;;;;9.82;4.20;;;;;;;14.02;45.00;103180.47;5014336;28;20053;-45
2022/04/28 09:18:20;;;;;;;10.88;4.30;;;;;;;15.31;43.15;103171.66;5014925;28;20096;-47
2022/04/28 09:20:46;;;;;;;11.40;4.47;;;;;;;14.69;43.25;103165.94;4996780;28;20075;-45
2022/04/28 09:23:13;;;;;;;14.50;4.65;;;;;;;15.00;42.50;103173.22;5014117;28;20109;-46
2022/04/28 09:25:39;;;;;;;14.38;4.45;;;;;;;16.15;42.82;103163.72;5014213;28;20421;-45
2022/04/28 09:28:05;;;;;;;12.25;4.22;;;;;;;16.78;41.06;103164.72;5014633;28;20102;-45
2022/04/28 09:30:41;;;;;;;10.02;4.07;;;;;;;15.84;40.63;103159.19;5014328;28;20037;-45
2022/04/28 09:33:08;;;;;;;12.63;4.05;;;;;;;16.14;40.85;103156.84;5014888;28;20021;-46
2022/04/28 09:35:34;;;;;;;10.32;4.28;;;;;;;15.55;41.01;103159.66;5014024;28;20416;-47
2022/04/28 09:37:59;;;;;;;9.73;4.00;;;;;;;15.33;43.44;103164.53;5014216;28;20084;-48
2022/04/28 09:43:19;;;;;;;9.95;4.20;;;;;;;16.31;39.31;103145.41;4983595;28;20038;-46
2022/04/28 09:45:44;;;;;;;10.20;3.92;;;;;;;15.88;40.71;103144.03;5013791;28;20519;-47
2022/04/28 09:48:10;;;;;;;9.00;3.70;;;;;;;15.66;42.04;103145.50;5014231;28;20033;-45
2022/04/28 09:50:40;;;;;;;14.30;4.05;;;;;;;16.53;39.95;103143.06;4996191;28;20384;-45
2022/04/28 09:53:05;;;;;;;9.70;3.83;;;;;;;16.94;39.29;103135.06;5013918;28;20056;-46
2022/04/28 09:55:31;;;;;;;8.50;3.90;;;;;;;16.68;38.63;103143.97;5013934;28;20057;-54
2022/04/28 09:57:56;;;;;;;13.70;4.15;;;;;;;16.84;41.54;103140.53;5014463;28;20104;-45
2022/04/28 10:00:22;;;;;;;10.40;3.38;;;;;;;16.28;41.41;103140.53;5013615;28;20432;-45
2022/04/28 10:02:49;;;;;;;12.85;3.60;;;;;;;15.22;41.62;103135.31;5011520;28;20029;-46
2022/04/28 10:05:16;;;;;;;9.82;3.90;;;;;;;15.66;41.77;103138.47;5014318;28;20034;-46
2022/04/28 10:07:42;;;;;;;12.27;3.90;;;;;;;15.83;40.64;103141.94;5013538;28;20113;-47
2022/04/28 10:10:08;;;;;;;7.35;3.50;;;;;;;16.88;39.52;103142.59;5012975;28;20362;-46
2022/04/28 10:12:33;;;;;;;10.45;4.00;;;;;;;15.77;41.93;103135.56;5014077;28;20029;-46
2022/04/28 10:15:00;;;;;;;7.57;3.58;;;;;;;16.30;40.24;103128.13;5013229;28;20069;-45
2022/04/28 10:17:35;;;;;;;7.47;3.63;;;;;;;16.88;40.49;103145.22;5013486;28;20045;-46
2022/04/28 10:20:10;;;;;;;7.13;3.72;;;;;;;16.50;42.09;103125.94;4996424;28;20033;-47
2022/04/28 10:22:37;;;;;;;7.65;3.90;;;;;;;17.38;39.00;103135.28;5014050;28;20033;-46
2022/04/28 10:33:26;;;;;;;8.88;3.63;;;;;;;17.60;38.81;103123.16;5013938;28;20029;-46
2022/04/28 10:35:57;;;;;;;9.77;4.40;;;;;;;17.08;39.75;103127.31;5013319;28;20029;-46
2022/04/28 10:38:34;;;;;;;8.57;3.65;;;;;;;17.76;39.28;103119.59;4995759;28;20060;-45
2022/04/28 10:41:04;;;;;;;10.00;3.83;;;;;;;18.49;37.82;103116.19;5013563;28;20033;-47
2022/04/28 10:43:32;;;;;;;9.25;3.95;;;;;;;17.81;39.14;103112.88;5013239;28;20396;-44
2022/04/28 10:46:04;;;;;;;11.75;3.78;;;;;;;17.97;38.12;103109.28;5013787;28;20473;-46
2022/04/28 10:48:35;;;;;;;7.85;3.70;;;;;;;17.74;38.40;103113.72;5013489;28;20088;-45
2022/04/28 10:51:15;;;;;;;9.10;3.85;;;;;;;18.32;38.11;103113.97;4995691;28;20392;-45
2022/04/28 10:54:01;;;;;;;9.02;4.00;;;;;;;17.48;41.26;103106.28;4997659;28;20034;-42
2022/04/28 10:56:56;;;;;;;11.90;4.10;;;;;;;17.36;39.32;103125.00;5016454;28;20045;-45
2022/04/28 10:59:29;;;;;;;9.52;4.18;;;;;;;17.19;38.93;103117.47;5008155;28;20104;-45
2022/04/28 11:01:55;;;;;;;8.65;3.80;;;;;;;18.42;39.42;103111.91;5015943;28;20346;-45
2022/04/28 11:04:22;;;;;;;8.98;3.92;;;;;;;17.77;38.23;103114.19;5016099;28;20030;-44
2022/04/28 11:06:58;;;;;;;12.70;4.30;;;;;;;17.38;38.57;103114.38;5016247;28;20109;-46
2022/04/28 11:09:34;;;;;;;11.68;4.30;;;;;;;18.06;37.75;103117.84;5016500;28;20030;-46
2022/04/28 11:12:11;;;;;;;12.32;4.50;;;;;;;18.75;38.24;103112.31;4998652;28;20041;-44
2022/04/28 11:14:47;;;;;;;11.48;4.50;;;;;;;19.19;37.60;103111.34;4998965;28;20050;-46
2022/04/28 11:17:14;;;;;;;13.60;4.70;;;;;;;17.42;38.41;103114.84;5016538;28;20017;-46
2022/04/28 11:19:41;;;;;;;10.98;4.53;;;;;;;17.54;39.17;103114.22;5016954;28;20045;-46
2022/04/28 11:22:06;;;;;;;10.75;4.45;;;;;;;18.28;39.23;103118.75;4998244;28;20457;-45
2022/04/28 11:24:33;;;;;;;11.88;4.30;;;;;;;18.82;38.29;103115.81;5016530;28;20026;-47
2022/04/28 11:26:59;;;;;;;14.02;4.60;;;;;;;17.88;38.80;103107.75;5016662;28;20056;-46
2022/04/28 11:29:24;;;;;;;11.77;4.57;;;;;;;18.92;38.08;103111.06;5016411;28;20045;-47
2022/04/28 11:31:53;;;;;;;10.32;4.40;;;;;;;17.96;37.94;103110.28;5017044;28;20026;-44
2022/04/28 11:34:19;;;;;;;9.88;4.40;;;;;;;15.84;42.34;103114.06;4982792;28;20057;-47
2022/04/28 11:36:45;;;;;;;9.10;4.38;;;;;;;17.49;40.79;103111.34;5016258;28;20318;-46
2022/04/28 11:39:10;;;;;;;8.77;4.70;;;;;;;16.75;41.33;103118.03;5016193;28;20050;-47
2022/04/28 11:41:39;;;;;;;12.80;4.57;;;;;;;17.21;39.23;103118.09;5015872;28;20109;-45
2022/04/28 11:44:07;;;;;;;9.55;4.32;;;;;;;17.75;37.90;103116.19;5016315;28;20026;-47
2022/04/28 11:46:34;;;;;;;13.30;4.60;;;;;;;17.92;39.29;103103.75;5016413;28;20041;-49
2022/04/28 11:49:00;;;;;;;7.93;4.03;;;;;;;18.14;37.82;103112.53;4998721;28;20065;-48